createdAt,value
2018-06-04T00:00:12.030Z,41.77
2018-06-04T00:02:41.237Z,36.60
2018-06-04T00:05:10.302Z,41.00
2018-06-04T00:07:39.031Z,44.80
2018-06-04T00:10:08.147Z,38.00
2018-06-04T00:12:37.099Z,41.50
2018-06-04T00:15:06.334Z,37.57
2018-06-04T00:17:35.383Z,46.87
2018-06-04T00:20:04.550Z,41.70
2018-06-04T00:22:33.178Z,43.27
2018-06-04T00:25:02.167Z,40.80
2018-06-04T00:27:31.022Z,41.07
2018-06-04T00:29:59.747Z,38.53
2018-06-04T00:32:28.699Z,39.47
2018-06-04T00:34:58.439Z,40.90
2018-06-04T00:37:27.242Z,44.73
2018-06-04T00:39:56.138Z,39.70
2018-06-04T00:42:25.201Z,44.87
2018-06-04T00:44:54.144Z,44.03
2018-06-04T00:47:23.086Z,43.73
2018-06-04T00:49:51.698Z,44.53
2018-06-04T00:52:20.944Z,41.50
2018-06-04T00:54:50.499Z,39.53
2018-06-04T00:57:19.575Z,44.23
2018-06-04T00:59:48.551Z,40.40
2018-06-04T01:02:17.509Z,49.97
2018-06-04T01:04:48.114Z,50.00
2018-06-04T01:07:17.688Z,46.97
2018-06-04T01:09:46.448Z,48.60
2018-06-04T01:12:15.753Z,44.33
2018-06-04T01:14:44.650Z,46.73
2018-06-04T01:17:14.563Z,45.80
2018-06-04T01:19:43.239Z,51.07
2018-06-04T01:22:12.613Z,44.47
2018-06-04T01:24:41.286Z,47.97
2018-06-04T01:27:10.222Z,44.23
2018-06-04T01:29:38.771Z,56.60
2018-06-04T01:32:07.607Z,46.63
2018-06-04T01:34:36.457Z,46.40
2018-06-04T01:37:05.610Z,43.97
2018-06-04T01:39:34.463Z,45.10
2018-06-04T01:42:03.453Z,45.87
2018-06-04T01:44:32.364Z,46.33
2018-06-04T01:47:01.303Z,47.33
2018-06-04T01:49:30.228Z,46.03
2018-06-04T01:51:59.335Z,44.97
2018-06-04T01:54:27.991Z,44.03
2018-06-04T01:56:56.704Z,44.87
2018-06-04T01:59:25.596Z,49.00
2018-06-04T02:01:54.669Z,45.40
2018-06-04T02:04:23.566Z,43.57
2018-06-04T02:06:52.553Z,43.77
2018-06-04T02:09:21.648Z,45.40
2018-06-04T02:11:50.553Z,49.97
2018-06-04T02:14:19.293Z,49.67
2018-06-04T02:16:48.666Z,49.37
2018-06-04T02:19:17.627Z,50.90
2018-06-04T02:21:46.758Z,45.93
2018-06-04T02:24:15.888Z,48.77
2018-06-04T02:26:44.600Z,47.43
2018-06-04T02:29:13.646Z,46.63
2018-06-04T02:31:42.612Z,48.80
2018-06-04T02:34:11.441Z,44.83
2018-06-04T02:36:40.547Z,54.63
2018-06-04T02:39:09.627Z,50.00
2018-06-04T02:41:39.062Z,46.77
2018-06-04T02:44:07.798Z,45.80
2018-06-04T02:46:36.475Z,45.87
2018-06-04T02:49:05.922Z,47.07
2018-06-04T02:51:34.975Z,47.27
2018-06-04T02:54:03.614Z,49.13
2018-06-04T02:56:32.430Z,45.40
2018-06-04T02:59:01.397Z,51.77
2018-06-04T03:01:30.023Z,49.07
2018-06-04T03:03:59.087Z,46.93
2018-06-04T03:06:27.809Z,44.20
2018-06-04T03:08:56.798Z,48.10
2018-06-04T03:11:25.398Z,48.63
2018-06-04T03:13:54.195Z,43.67
2018-06-04T03:16:22.977Z,45.23
2018-06-04T03:18:52.166Z,47.43
2018-06-04T03:21:21.177Z,44.80
2018-06-04T03:23:49.971Z,43.57
2018-06-04T03:26:19.066Z,49.00
2018-06-04T03:28:47.658Z,50.20
2018-06-04T03:31:16.593Z,44.87
2018-06-04T03:33:45.621Z,45.53
2018-06-04T03:36:14.656Z,48.10
2018-06-04T03:38:43.831Z,44.33
2018-06-04T03:41:12.739Z,44.77
2018-06-04T03:43:41.748Z,43.77
2018-06-04T03:46:10.628Z,43.40
2018-06-04T03:48:39.750Z,47.53
2018-06-04T03:51:08.561Z,40.60
2018-06-04T03:53:37.877Z,51.70
2018-06-04T03:56:07.009Z,47.17
2018-06-04T03:58:36.241Z,48.27
2018-06-04T04:04:00.474Z,39.40
2018-06-04T04:06:28.997Z,43.20
2018-06-04T04:08:57.493Z,46.83
2018-06-04T04:11:26.447Z,50.13
2018-06-04T04:13:55.462Z,45.60
2018-06-04T04:16:24.143Z,45.33
2018-06-04T04:18:53.128Z,46.90
2018-06-04T04:21:22.755Z,45.60
2018-06-04T04:23:51.611Z,43.57
2018-06-04T04:26:20.517Z,40.50
2018-06-04T04:28:49.702Z,42.60
2018-06-04T04:31:18.367Z,44.67
2018-06-04T04:33:47.391Z,49.63
2018-06-04T04:36:16.135Z,47.83
2018-06-04T04:38:44.796Z,49.80
2018-06-04T04:41:13.650Z,42.30
2018-06-04T04:43:42.439Z,45.23
2018-06-04T04:46:11.067Z,44.90
2018-06-04T04:48:39.737Z,47.90
2018-06-04T04:51:08.475Z,47.93
2018-06-04T04:53:38.243Z,45.40
2018-06-04T04:56:07.480Z,41.07
2018-06-04T04:58:36.440Z,39.03
2018-06-04T05:01:05.593Z,46.73
2018-06-04T05:03:34.685Z,41.80
2018-06-04T05:06:03.884Z,41.13
2018-06-04T05:08:32.697Z,44.97
2018-06-04T05:11:01.453Z,47.00
2018-06-04T05:13:30.052Z,43.77
2018-06-04T05:15:58.787Z,43.33
2018-06-04T05:18:27.286Z,45.20
2018-06-04T05:20:56.154Z,42.83
2018-06-04T05:23:24.688Z,45.30
2018-06-04T05:25:53.867Z,45.03
2018-06-04T05:28:22.538Z,43.33
2018-06-04T05:30:51.126Z,41.80
2018-06-04T05:33:20.072Z,35.43
2018-06-04T05:35:48.756Z,36.90
2018-06-04T05:38:17.367Z,43.10
2018-06-04T05:40:46.295Z,42.23
2018-06-04T05:43:14.914Z,35.03
2018-06-04T05:45:43.691Z,34.00
2018-06-04T05:48:12.371Z,42.03
2018-06-04T05:50:41.232Z,37.10
2018-06-04T05:53:10.231Z,42.53
2018-06-04T05:55:39.368Z,43.73
2018-06-04T05:58:08.383Z,32.50
2018-06-04T06:00:37.084Z,36.67
2018-06-04T06:03:05.893Z,38.43
2018-06-04T06:05:35.399Z,34.50
2018-06-04T06:08:04.166Z,34.23
2018-06-04T06:10:32.747Z,40.07
2018-06-04T06:13:01.293Z,27.77
2018-06-04T06:15:36.457Z,30.37
2018-06-04T06:18:05.032Z,35.43
2018-06-04T06:20:34.275Z,43.17
2018-06-04T06:23:03.571Z,41.57
2018-06-04T06:25:32.067Z,28.03
2018-06-04T06:28:00.593Z,29.57
2018-06-04T06:30:30.486Z,25.80
2018-06-04T06:32:59.579Z,23.97
2018-06-04T06:35:28.164Z,24.90
2018-06-04T06:37:56.979Z,25.50
2018-06-04T06:40:26.279Z,29.57
2018-06-04T06:42:54.904Z,23.50
2018-06-04T06:45:23.391Z,25.10
2018-06-04T06:47:53.391Z,26.00
2018-06-04T06:50:22.720Z,28.47
2018-06-04T06:52:51.959Z,29.30
2018-06-04T06:55:20.508Z,22.60
2018-06-04T06:57:49.019Z,28.73
2018-06-04T07:00:18.440Z,32.20
2018-06-04T07:02:48.381Z,26.23
2018-06-04T07:05:17.232Z,26.07
2018-06-04T07:07:45.891Z,24.03
2018-06-04T07:10:14.434Z,24.93
2018-06-04T07:12:43.347Z,27.53
2018-06-04T07:15:12.016Z,23.30
2018-06-04T07:17:40.495Z,20.90
2018-06-04T07:20:09.129Z,26.37
2018-06-04T07:22:37.629Z,20.20
2018-06-04T07:25:06.874Z,22.53
2018-06-04T07:27:35.576Z,22.33
2018-06-04T07:30:04.641Z,17.30
2018-06-04T07:32:33.151Z,21.77
2018-06-04T07:35:01.841Z,38.93
2018-06-04T07:37:30.805Z,19.00
2018-06-04T07:39:59.671Z,25.23
2018-06-04T07:42:28.341Z,21.57
2018-06-04T07:44:57.003Z,26.20
2018-06-04T07:47:27.269Z,20.30
2018-06-04T07:49:56.147Z,20.53
2018-06-04T07:52:24.737Z,19.10
2018-06-04T07:54:53.252Z,24.27
2018-06-04T07:57:21.915Z,24.10
2018-06-04T07:59:50.407Z,23.10
2018-06-04T08:02:19.195Z,26.37
2018-06-04T08:04:48.155Z,25.77
2018-06-04T08:07:17.187Z,23.87
2018-06-04T08:09:45.708Z,18.13
2018-06-04T08:12:14.262Z,22.30
2018-06-04T08:14:42.722Z,21.67
2018-06-04T08:17:11.257Z,23.40
2018-06-04T08:19:39.732Z,17.70
2018-06-04T08:22:08.376Z,18.63
2018-06-04T08:24:37.188Z,73.30
2018-06-04T08:27:05.959Z,30.50
2018-06-04T08:29:34.410Z,18.10
2018-06-04T08:32:03.298Z,17.80
2018-06-04T08:34:31.883Z,17.57
2018-06-04T08:37:00.467Z,17.67
2018-06-04T08:39:28.970Z,19.20
2018-06-04T08:41:57.583Z,25.03
2018-06-04T08:44:26.060Z,26.37
2018-06-04T08:46:54.760Z,25.03
2018-06-04T08:49:23.457Z,21.30
2018-06-04T08:51:52.171Z,20.33
2018-06-04T08:54:20.989Z,18.63
2018-06-04T08:56:49.747Z,30.63
2018-06-04T08:59:18.407Z,24.17
2018-06-04T09:01:46.947Z,18.63
2018-06-04T09:04:15.594Z,47.10
2018-06-04T09:06:44.293Z,22.33
2018-06-04T09:09:13.248Z,22.37
2018-06-04T09:11:41.850Z,18.53
2018-06-04T09:14:10.383Z,25.17
2018-06-04T09:17:38.413Z,19.53
2018-06-04T09:21:09.761Z,20.47
2018-06-04T09:23:38.466Z,28.00
2018-06-04T09:26:07.027Z,18.50
2018-06-04T09:28:35.836Z,21.03
2018-06-04T09:31:04.526Z,21.47
2018-06-04T09:33:33.247Z,19.53
2018-06-04T09:36:01.769Z,37.50
2018-06-04T09:38:30.467Z,20.80
2018-06-04T09:40:59.092Z,19.63
2018-06-04T09:43:27.565Z,22.03
2018-06-04T09:45:56.471Z,17.27
2018-06-04T09:48:25.069Z,19.87
2018-06-04T09:50:53.592Z,22.03
2018-06-04T09:53:22.095Z,20.60
2018-06-04T09:55:50.619Z,18.63
2018-06-04T09:58:19.195Z,19.47
2018-06-04T10:00:47.953Z,17.43
2018-06-04T10:03:16.482Z,19.90
2018-06-04T10:05:45.090Z,20.17
2018-06-04T10:08:13.637Z,17.13
2018-06-04T10:10:42.272Z,16.77
2018-06-04T10:13:10.921Z,17.50
2018-06-04T10:15:39.468Z,15.90
2018-06-04T10:18:08.031Z,20.07
2018-06-04T10:20:36.605Z,19.13
2018-06-04T10:23:05.231Z,17.17
2018-06-04T10:25:33.964Z,16.30
2018-06-04T10:28:02.463Z,14.60
2018-06-04T10:30:31.003Z,13.43
2018-06-04T10:32:59.479Z,11.97
2018-06-04T10:35:28.028Z,12.43
2018-06-04T10:37:56.997Z,15.03
2018-06-04T10:40:25.637Z,13.40
2018-06-04T10:42:54.175Z,10.50
2018-06-04T10:45:22.860Z,11.90
2018-06-04T10:47:51.363Z,18.00
2018-06-04T10:50:20.184Z,19.70
2018-06-04T10:52:48.896Z,12.83
2018-06-04T10:55:17.428Z,21.93
2018-06-04T10:57:46.358Z,11.97
2018-06-04T11:00:15.007Z,49.67
2018-06-04T11:02:43.675Z,28.13
2018-06-04T11:05:12.338Z,12.07
2018-06-04T11:07:40.975Z,17.63
2018-06-04T11:10:09.698Z,11.73
2018-06-04T11:12:38.350Z,10.37
2018-06-04T11:15:06.876Z,12.50
2018-06-04T11:17:35.870Z,10.73
2018-06-04T11:20:04.732Z,9.47
2018-06-04T11:22:33.575Z,10.40
2018-06-04T11:25:02.312Z,13.50
2018-06-04T11:27:31.070Z,9.23
2018-06-04T11:29:59.829Z,7.63
2018-06-04T11:32:29.107Z,7.90
2018-06-04T11:34:58.046Z,8.63
2018-06-04T11:37:27.121Z,11.10
2018-06-04T11:39:56.593Z,6.47
2018-06-04T11:42:25.511Z,9.83
2018-06-04T11:44:54.160Z,8.03
2018-06-04T11:47:22.844Z,10.87
2018-06-04T11:49:51.324Z,8.43
2018-06-04T11:52:20.010Z,6.50
2018-06-04T11:54:48.479Z,7.20
2018-06-04T11:57:17.006Z,9.40
2018-06-04T11:59:45.541Z,5.60
2018-06-04T12:02:14.104Z,11.23
2018-06-04T12:04:42.718Z,7.60
2018-06-04T12:07:11.303Z,7.33
2018-06-04T12:09:40.239Z,10.50
2018-06-04T12:12:08.882Z,6.40
2018-06-04T12:14:37.339Z,4.60
2018-06-04T12:17:06.087Z,6.00
2018-06-04T12:19:34.747Z,5.37
2018-06-04T12:22:03.261Z,5.83
2018-06-04T12:24:31.861Z,5.40
2018-06-04T12:27:00.607Z,4.97
2018-06-04T12:29:29.424Z,5.23
2018-06-04T12:31:58.059Z,9.80
2018-06-04T12:34:26.522Z,4.57
2018-06-04T12:36:55.043Z,20.63
2018-06-04T12:39:23.547Z,6.87
2018-06-04T12:41:52.083Z,5.70
2018-06-04T12:44:20.656Z,5.27
2018-06-04T12:46:49.255Z,8.63
2018-06-04T12:49:17.753Z,6.17
2018-06-04T12:51:46.422Z,9.47
2018-06-04T12:54:15.096Z,9.20
2018-06-04T12:56:44.393Z,4.93
2018-06-04T12:59:12.963Z,6.83
2018-06-04T13:01:41.782Z,17.97
2018-06-04T13:04:10.290Z,4.77
2018-06-04T13:06:38.807Z,8.90
2018-06-04T13:09:08.355Z,13.10
2018-06-04T13:11:36.919Z,13.87
2018-06-04T13:14:07.811Z,5.23
2018-06-04T13:16:36.802Z,6.70
2018-06-04T13:19:05.339Z,5.20
2018-06-04T13:21:33.889Z,12.67
2018-06-04T13:24:02.654Z,10.63
2018-06-04T13:26:31.213Z,15.07
2018-06-04T13:28:59.748Z,10.03
2018-06-04T13:31:28.475Z,12.07
2018-06-04T13:33:57.136Z,15.07
2018-06-04T13:36:25.671Z,7.23
2018-06-04T13:38:54.162Z,7.70
2018-06-04T13:41:22.816Z,17.20
2018-06-04T13:43:51.290Z,8.30
2018-06-04T13:46:20.383Z,23.00
2018-06-04T13:48:48.877Z,15.23
2018-06-04T13:51:17.420Z,8.63
2018-06-04T13:53:45.959Z,9.80
2018-06-04T13:56:14.552Z,7.00
2018-06-04T13:58:43.200Z,50.03
2018-06-04T14:01:11.746Z,79.53
2018-06-04T14:03:40.323Z,7.87
2018-06-04T14:06:08.898Z,13.13
2018-06-04T14:08:37.424Z,9.50
2018-06-04T14:11:05.945Z,6.90
2018-06-04T14:13:34.490Z,5.47
2018-06-04T14:16:03.428Z,21.03
2018-06-04T14:18:31.963Z,14.07
2018-06-04T14:21:00.538Z,11.40
2018-06-04T14:23:29.247Z,10.47
2018-06-04T14:25:57.962Z,11.50
2018-06-04T14:28:26.528Z,19.30
2018-06-04T14:30:55.309Z,10.13
2018-06-04T14:33:23.888Z,52.47
2018-06-04T14:35:52.472Z,6.40
2018-06-04T14:38:21.130Z,8.50
2018-06-04T14:40:49.844Z,9.90
2018-06-04T14:43:18.517Z,7.57
2018-06-04T14:45:47.411Z,10.13
2018-06-04T14:48:15.949Z,14.63
2018-06-04T14:50:45.291Z,8.27
2018-06-04T14:53:13.800Z,7.67
2018-06-04T14:55:42.357Z,9.03
2018-06-04T14:58:10.959Z,11.57
2018-06-04T15:00:39.500Z,12.90
2018-06-04T15:03:08.366Z,11.17
2018-06-04T15:05:37.030Z,7.80
2018-06-04T15:08:05.650Z,11.30
2018-06-04T15:10:34.179Z,11.93
2018-06-04T15:13:02.951Z,9.90
2018-06-04T15:15:31.532Z,7.80
2018-06-04T15:18:00.233Z,9.67
2018-06-04T15:20:29.107Z,12.00
2018-06-04T15:22:57.707Z,8.60
2018-06-04T15:25:26.195Z,9.30
2018-06-04T15:27:54.646Z,12.13
2018-06-04T15:30:23.150Z,11.67
2018-06-04T15:32:51.683Z,8.43
2018-06-04T15:35:20.187Z,8.00
2018-06-04T15:37:48.952Z,9.50
2018-06-04T15:40:18.630Z,9.13
2018-06-04T15:42:47.079Z,8.67
2018-06-04T15:45:15.650Z,7.93
2018-06-04T15:47:44.576Z,18.77
2018-06-04T15:50:13.191Z,7.77
2018-06-04T15:52:41.795Z,6.60
2018-06-04T15:55:11.294Z,17.23
2018-06-04T15:57:39.835Z,8.67
2018-06-04T16:00:08.352Z,9.20
2018-06-04T16:02:37.089Z,12.00
2018-06-04T16:05:05.886Z,9.67
2018-06-04T16:07:34.667Z,9.73
2018-06-04T16:10:03.226Z,10.77
2018-06-04T16:12:31.856Z,9.93
2018-06-04T16:15:00.295Z,10.30
2018-06-04T16:17:28.883Z,11.70
2018-06-04T16:19:57.547Z,10.70
2018-06-04T16:22:26.255Z,15.63
2018-06-04T16:24:54.923Z,14.93
2018-06-04T16:27:24.571Z,11.50
2018-06-04T16:29:53.110Z,15.57
2018-06-04T16:32:21.628Z,12.20
2018-06-04T16:34:50.281Z,14.70
2018-06-04T16:37:18.856Z,11.30
2018-06-04T16:39:47.305Z,17.83
2018-06-04T16:42:15.887Z,13.80
2018-06-04T16:44:44.377Z,17.20
2018-06-04T16:47:12.916Z,11.77
2018-06-04T16:49:41.377Z,13.73
2018-06-04T16:52:09.938Z,11.60
2018-06-04T16:54:38.455Z,16.53
2018-06-04T16:57:07.046Z,9.50
2018-06-04T16:59:35.569Z,11.47
2018-06-04T17:02:04.140Z,14.93
2018-06-04T17:04:32.709Z,10.80
2018-06-04T17:07:01.392Z,10.10
2018-06-04T17:09:29.882Z,15.40
2018-06-04T17:11:58.780Z,11.30
2018-06-04T17:14:27.339Z,13.13
2018-06-04T17:16:55.950Z,12.27
2018-06-04T17:19:25.334Z,13.50
2018-06-04T17:21:54.104Z,9.53
2018-06-04T17:24:23.904Z,10.63
2018-06-04T17:26:52.907Z,16.93
2018-06-04T17:29:21.692Z,10.10
2018-06-04T17:31:50.360Z,11.80
2018-06-04T17:34:18.956Z,9.27
2018-06-04T17:36:47.652Z,7.63
2018-06-04T17:39:16.134Z,9.20
2018-06-04T17:41:44.860Z,11.47
2018-06-04T17:44:13.339Z,10.10
2018-06-04T17:46:41.827Z,9.30
2018-06-04T17:49:10.275Z,21.03
2018-06-04T17:51:38.943Z,7.70
2018-06-04T17:54:07.406Z,12.13
2018-06-04T17:56:35.943Z,12.93
2018-06-04T17:59:04.994Z,7.50
2018-06-04T18:01:33.691Z,7.47
2018-06-04T18:04:02.193Z,6.80
2018-06-04T18:06:30.861Z,9.17
2018-06-04T18:08:59.522Z,7.83
2018-06-04T18:11:28.028Z,9.43
2018-06-04T18:13:56.871Z,6.80
2018-06-04T18:16:25.394Z,10.57
2018-06-04T18:18:54.127Z,6.87
2018-06-04T18:21:22.783Z,8.40
2018-06-04T18:23:51.872Z,5.73
2018-06-04T18:26:20.572Z,16.47
2018-06-04T18:28:49.026Z,10.87
2018-06-04T18:31:17.728Z,9.33
2018-06-04T18:33:46.420Z,7.43
2018-06-04T18:36:15.324Z,8.23
2018-06-04T18:38:44.192Z,17.37
2018-06-04T18:41:12.718Z,13.17
2018-06-04T18:43:41.423Z,7.70
2018-06-04T18:46:10.896Z,7.90
2018-06-04T18:48:39.703Z,7.93
2018-06-04T18:51:08.704Z,9.30
2018-06-04T18:53:37.466Z,12.43
2018-06-04T18:56:06.345Z,7.93
2018-06-04T18:58:34.911Z,7.63
2018-06-04T19:01:03.530Z,6.60
2018-06-04T19:03:32.264Z,10.17
2018-06-04T19:06:01.244Z,10.07
2018-06-04T19:08:29.983Z,13.97
2018-06-04T19:10:58.783Z,14.13
2018-06-04T19:13:27.403Z,10.93
2018-06-04T19:15:55.911Z,9.43
2018-06-04T19:18:24.410Z,12.90
2018-06-04T19:20:53.306Z,9.67
2018-06-04T19:23:22.184Z,10.07
2018-06-04T19:25:50.924Z,10.03
2018-06-04T19:28:19.576Z,10.13
2018-06-04T19:30:48.305Z,13.07
2018-06-04T19:33:18.348Z,13.10
2018-06-04T19:35:47.520Z,11.77
2018-06-04T19:38:16.489Z,11.83
2018-06-04T19:40:44.991Z,9.27
2018-06-04T19:43:13.736Z,12.07
2018-06-04T19:45:42.417Z,11.87
2018-06-04T19:48:11.049Z,16.13
2018-06-04T19:50:39.567Z,13.10
2018-06-04T19:53:08.210Z,12.30
2018-06-04T19:55:36.947Z,17.30
2018-06-04T19:58:07.431Z,14.73
2018-06-04T20:00:36.035Z,17.53
2018-06-04T20:03:06.306Z,17.67
2018-06-04T20:05:34.916Z,17.90
2018-06-04T20:08:03.442Z,17.23
2018-06-04T20:10:31.949Z,18.80
2018-06-04T20:13:00.429Z,21.30
2018-06-04T20:15:28.976Z,18.73
2018-06-04T20:17:57.758Z,23.20
2018-06-04T20:20:26.380Z,19.07
2018-06-04T20:22:54.932Z,18.60
2018-06-04T20:25:23.628Z,18.40
2018-06-04T20:27:52.201Z,22.03
2018-06-04T20:30:20.752Z,21.53
2018-06-04T20:32:49.297Z,19.90
2018-06-04T20:35:17.962Z,20.47
2018-06-04T20:37:46.468Z,23.30
2018-06-04T20:40:15.128Z,23.13
2018-06-04T20:42:43.611Z,25.30
2018-06-04T20:45:12.167Z,24.70
2018-06-04T20:47:40.716Z,20.03
2018-06-04T20:50:09.462Z,22.47
2018-06-04T20:52:39.834Z,22.50
2018-06-04T20:55:11.575Z,23.77
2018-06-04T20:57:41.231Z,26.00
2018-06-04T21:00:10.363Z,24.27
2018-06-04T21:02:39.560Z,27.97
2018-06-04T21:05:08.378Z,26.37
2018-06-04T21:07:36.911Z,24.60
2018-06-04T21:10:05.531Z,30.23
2018-06-04T21:12:34.016Z,26.13
2018-06-04T21:15:02.535Z,26.53
2018-06-04T21:17:31.041Z,27.73
2018-06-04T21:19:59.506Z,25.13
2018-06-04T21:22:28.199Z,25.93
2018-06-04T21:24:56.706Z,26.00
2018-06-04T21:27:25.286Z,24.07
2018-06-04T21:29:53.902Z,28.93
2018-06-04T21:32:22.435Z,26.77
2018-06-04T21:34:50.926Z,25.37
2018-06-04T21:37:19.757Z,23.90
2018-06-04T21:39:48.277Z,22.97
2018-06-04T21:42:16.838Z,25.20
2018-06-04T21:44:45.565Z,24.53
2018-06-04T21:47:14.076Z,23.53
2018-06-04T21:49:42.706Z,20.70
2018-06-04T21:52:11.223Z,23.57
2018-06-04T21:54:39.679Z,25.07
2018-06-04T21:57:08.254Z,26.00
2018-06-04T21:59:36.820Z,22.50
2018-06-04T22:02:05.386Z,20.20
2018-06-04T22:04:33.855Z,22.63
2018-06-04T22:07:02.716Z,25.40
2018-06-04T22:09:31.174Z,27.40
2018-06-04T22:11:59.739Z,26.63
2018-06-04T22:14:28.278Z,22.50
2018-06-04T22:16:57.136Z,26.43
2018-06-04T22:19:25.622Z,22.40
2018-06-04T22:21:54.605Z,21.67
2018-06-04T22:24:23.090Z,21.40
2018-06-04T22:26:51.756Z,21.27
2018-06-04T22:29:20.264Z,23.37
2018-06-04T22:31:48.929Z,22.10
2018-06-04T22:34:17.399Z,24.87
2018-06-04T22:36:45.931Z,24.40
2018-06-04T22:39:14.516Z,22.67
2018-06-04T22:41:43.019Z,21.10
2018-06-04T22:44:11.546Z,23.00
2018-06-04T22:46:40.149Z,21.37
2018-06-04T22:49:08.815Z,25.97
2018-06-04T22:51:37.335Z,27.40
2018-06-04T22:54:05.863Z,24.77
2018-06-04T22:56:34.497Z,23.37
2018-06-04T22:59:03.144Z,23.50
2018-06-04T23:01:31.808Z,24.70
2018-06-04T23:04:01.320Z,33.47
2018-06-04T23:06:29.861Z,30.50
2018-06-04T23:08:58.342Z,21.63
2018-06-04T23:11:26.869Z,23.90
2018-06-04T23:13:55.483Z,24.90
2018-06-04T23:16:24.060Z,29.20
2018-06-04T23:18:52.552Z,24.80
2018-06-04T23:21:21.140Z,25.43
2018-06-04T23:23:49.617Z,24.40
2018-06-04T23:26:18.151Z,25.07
2018-06-04T23:28:47.035Z,29.80
2018-06-04T23:31:15.527Z,24.10
2018-06-04T23:33:44.090Z,29.77
2018-06-04T23:36:14.378Z,31.73
2018-06-04T23:38:43.712Z,29.07
2018-06-04T23:41:12.249Z,33.47
2018-06-04T23:43:40.782Z,27.93
2018-06-04T23:46:09.446Z,28.50
2018-06-04T23:48:38.079Z,35.60
2018-06-04T23:51:06.598Z,38.17
2018-06-04T23:53:35.262Z,33.47
2018-06-04T23:56:03.769Z,32.20
2018-06-04T23:58:32.443Z,35.27
